createdAt,value
2019-03-27T00:00:10.361Z,12.65
2019-03-27T00:02:38.804Z,12.45
2019-03-27T00:05:07.178Z,12.68
2019-03-27T00:07:35.591Z,12.88
2019-03-27T00:10:06.454Z,11.97
2019-03-27T00:12:34.863Z,11.70
2019-03-27T00:15:13.379Z,10.98
2019-03-27T00:17:40.665Z,12.85
2019-03-27T00:20:09.403Z,10.23
2019-03-27T00:22:37.814Z,10.18
2019-03-27T00:25:08.049Z,11.35
2019-03-27T00:27:36.553Z,10.72
2019-03-27T00:30:08.357Z,9.95
2019-03-27T00:32:36.876Z,11.88
2019-03-27T00:35:07.767Z,10.48
2019-03-27T00:37:36.154Z,10.72
2019-03-27T00:40:06.337Z,10.43
2019-03-27T00:42:34.925Z,10.38
2019-03-27T00:45:04.415Z,9.98
2019-03-27T00:47:32.832Z,10.43
2019-03-27T00:50:01.379Z,11.25
2019-03-27T00:52:29.810Z,10.82
2019-03-27T00:54:58.229Z,11.85
2019-03-27T00:57:26.609Z,11.05
2019-03-27T00:59:55.038Z,12.00
2019-03-27T01:02:23.474Z,10.55
2019-03-27T01:04:51.923Z,12.33
2019-03-27T01:07:20.359Z,11.68
2019-03-27T01:09:48.776Z,10.25
2019-03-27T01:12:17.357Z,11.10
2019-03-27T01:14:45.745Z,11.48
2019-03-27T01:17:14.216Z,10.50
2019-03-27T01:19:42.645Z,12.28
2019-03-27T01:22:11.064Z,11.28
2019-03-27T01:24:39.651Z,11.85
2019-03-27T01:27:08.045Z,11.70
2019-03-27T01:29:36.445Z,12.10
2019-03-27T01:32:04.965Z,10.45
2019-03-27T01:34:33.356Z,11.33
2019-03-27T01:37:01.797Z,12.37
2019-03-27T01:39:30.266Z,12.60
2019-03-27T01:41:58.687Z,13.55
2019-03-27T01:44:27.197Z,12.93
2019-03-27T01:46:55.589Z,12.95
2019-03-27T01:49:24.032Z,11.45
2019-03-27T01:51:52.529Z,12.25
2019-03-27T01:54:20.947Z,11.50
2019-03-27T01:56:49.342Z,12.15
2019-03-27T01:59:17.824Z,11.48
2019-03-27T02:01:46.207Z,13.60
2019-03-27T02:04:14.721Z,12.73
2019-03-27T02:06:43.135Z,11.10
2019-03-27T02:09:11.590Z,10.65
2019-03-27T02:11:39.986Z,12.78
2019-03-27T02:14:08.509Z,12.33
2019-03-27T02:16:36.943Z,11.10
2019-03-27T02:19:05.325Z,12.43
2019-03-27T02:21:33.766Z,11.63
2019-03-27T02:24:02.188Z,13.43
2019-03-27T02:26:30.646Z,11.70
2019-03-27T02:28:59.075Z,13.45
2019-03-27T02:31:27.480Z,12.70
2019-03-27T02:33:55.893Z,12.45
2019-03-27T02:36:24.303Z,11.93
2019-03-27T02:38:53.959Z,12.45
2019-03-27T02:41:22.472Z,13.55
2019-03-27T02:43:50.899Z,12.28
2019-03-27T02:46:25.255Z,12.47
2019-03-27T02:48:49.317Z,13.38
2019-03-27T02:51:17.758Z,13.30
2019-03-27T02:53:46.215Z,13.05
2019-03-27T02:56:14.655Z,13.70
2019-03-27T02:58:43.087Z,14.73
2019-03-27T03:01:12.451Z,12.98
2019-03-27T03:03:40.862Z,12.03
2019-03-27T03:06:09.280Z,13.28
2019-03-27T03:08:37.729Z,12.58
2019-03-27T03:11:06.103Z,13.20
2019-03-27T03:13:34.609Z,12.05
2019-03-27T03:16:03.045Z,11.80
2019-03-27T03:18:31.505Z,12.98
2019-03-27T03:20:59.981Z,13.03
2019-03-27T03:23:28.503Z,14.58
2019-03-27T03:25:56.920Z,12.00
2019-03-27T03:28:25.298Z,12.60
2019-03-27T03:30:53.750Z,12.37
2019-03-27T03:33:22.174Z,13.70
2019-03-27T03:35:50.567Z,12.18
2019-03-27T03:38:18.967Z,14.18
2019-03-27T03:40:48.442Z,15.23
2019-03-27T03:43:16.831Z,15.20
2019-03-27T03:45:46.327Z,12.93
2019-03-27T03:48:14.737Z,13.20
2019-03-27T03:50:43.791Z,13.20
2019-03-27T03:53:13.365Z,12.68
2019-03-27T03:55:41.987Z,12.30
2019-03-27T03:58:11.779Z,13.70
2019-03-27T04:00:40.411Z,14.25
2019-03-27T04:03:08.852Z,13.98
2019-03-27T04:05:37.277Z,13.25
2019-03-27T04:08:05.947Z,13.58
2019-03-27T04:10:34.338Z,13.95
2019-03-27T04:13:02.768Z,12.75
2019-03-27T04:15:31.182Z,13.80
2019-03-27T04:17:59.620Z,12.23
2019-03-27T04:20:28.014Z,14.63
2019-03-27T04:22:56.415Z,13.05
2019-03-27T04:25:24.837Z,13.75
2019-03-27T04:27:53.251Z,14.60
2019-03-27T04:30:21.635Z,14.90
2019-03-27T04:32:50.047Z,13.10
2019-03-27T04:35:18.457Z,12.85
2019-03-27T04:37:46.866Z,13.48
2019-03-27T04:40:15.254Z,13.75
2019-03-27T04:42:43.670Z,13.18
2019-03-27T04:45:12.531Z,14.10
2019-03-27T04:47:41.003Z,12.75
2019-03-27T04:50:09.428Z,14.63
2019-03-27T04:52:37.800Z,12.95
2019-03-27T04:55:06.370Z,14.55
2019-03-27T04:57:34.763Z,12.88
2019-03-27T05:00:05.208Z,14.95
2019-03-27T05:02:34.606Z,14.18
2019-03-27T05:05:03.882Z,13.18
2019-03-27T05:07:32.278Z,14.00
2019-03-27T05:10:00.696Z,11.97
2019-03-27T05:12:29.089Z,12.82
2019-03-27T05:14:57.499Z,13.15
2019-03-27T05:17:25.909Z,13.93
2019-03-27T05:19:54.328Z,13.43
2019-03-27T05:22:22.809Z,12.63
2019-03-27T05:24:51.188Z,12.15
2019-03-27T05:27:19.668Z,13.50
2019-03-27T05:29:48.111Z,11.57
2019-03-27T05:32:16.531Z,13.43
2019-03-27T05:34:45.871Z,13.18
2019-03-27T05:37:14.262Z,11.03
2019-03-27T05:39:42.683Z,11.93
2019-03-27T05:42:11.079Z,13.30
2019-03-27T05:44:39.489Z,10.82
2019-03-27T05:47:07.886Z,12.13
2019-03-27T05:49:36.298Z,13.08
2019-03-27T05:52:04.701Z,11.30
2019-03-27T05:54:33.129Z,13.78
2019-03-27T05:57:01.536Z,12.85
2019-03-27T05:59:29.956Z,12.10
2019-03-27T06:01:58.368Z,11.10
2019-03-27T06:04:26.786Z,11.03
2019-03-27T06:06:55.257Z,10.80
2019-03-27T06:09:23.666Z,10.45
2019-03-27T06:11:52.055Z,11.75
2019-03-27T06:14:20.515Z,11.30
2019-03-27T06:16:48.935Z,10.25
2019-03-27T06:19:17.405Z,10.63
2019-03-27T06:21:45.805Z,11.03
2019-03-27T06:24:14.223Z,9.90
2019-03-27T06:26:42.631Z,11.73
2019-03-27T06:29:11.057Z,12.07
2019-03-27T06:31:40.494Z,10.03
2019-03-27T06:34:08.968Z,10.25
2019-03-27T06:36:37.341Z,9.65
2019-03-27T06:39:06.138Z,9.55
2019-03-27T06:41:34.572Z,10.13
2019-03-27T06:44:02.974Z,9.70
2019-03-27T06:46:31.379Z,9.63
2019-03-27T06:48:59.802Z,9.93
2019-03-27T06:51:39.472Z,8.90
2019-03-27T06:53:58.269Z,8.33
2019-03-27T06:56:26.758Z,8.38
2019-03-27T06:58:55.255Z,8.98
2019-03-27T07:01:23.636Z,8.15
2019-03-27T07:03:52.086Z,8.18
2019-03-27T07:06:20.531Z,8.05
2019-03-27T07:08:48.989Z,9.48
2019-03-27T07:11:17.403Z,9.98
2019-03-27T07:13:45.791Z,9.53
2019-03-27T07:16:14.346Z,8.73
2019-03-27T07:18:45.806Z,9.55
2019-03-27T07:21:14.241Z,9.28
2019-03-27T07:23:42.656Z,8.88
2019-03-27T07:26:11.043Z,8.68
2019-03-27T07:28:39.565Z,9.13
2019-03-27T07:31:07.976Z,8.35
2019-03-27T07:33:36.360Z,9.35
2019-03-27T07:36:05.807Z,10.53
2019-03-27T07:38:34.211Z,7.97
2019-03-27T07:41:02.660Z,7.90
2019-03-27T07:43:31.058Z,7.35
2019-03-27T07:45:59.474Z,7.03
2019-03-27T07:48:27.898Z,8.33
2019-03-27T07:50:56.389Z,8.05
2019-03-27T07:53:24.761Z,8.00
2019-03-27T07:55:54.214Z,8.05
2019-03-27T07:58:22.610Z,8.50
2019-03-27T08:00:51.131Z,7.72
2019-03-27T08:03:19.533Z,7.50
2019-03-27T08:05:47.969Z,8.48
2019-03-27T08:08:16.365Z,7.28
2019-03-27T08:10:45.059Z,7.12
2019-03-27T08:13:13.500Z,8.10
2019-03-27T08:15:41.875Z,8.00
2019-03-27T08:18:10.337Z,7.83
2019-03-27T08:20:39.720Z,7.40
2019-03-27T08:23:08.142Z,7.67
2019-03-27T08:25:36.622Z,7.08
2019-03-27T08:28:05.060Z,6.70
2019-03-27T08:30:33.445Z,6.53
2019-03-27T08:33:01.861Z,6.35
2019-03-27T08:35:30.241Z,6.60
2019-03-27T08:37:58.654Z,6.33
2019-03-27T08:40:27.062Z,6.85
2019-03-27T08:42:55.480Z,7.35
2019-03-27T08:45:23.958Z,7.33
2019-03-27T08:47:52.381Z,7.10
2019-03-27T08:50:20.811Z,6.78
2019-03-27T08:52:49.226Z,6.70
2019-03-27T08:55:17.634Z,6.53
2019-03-27T08:57:46.046Z,5.90
2019-03-27T09:00:14.944Z,5.53
2019-03-27T09:02:43.335Z,5.00
2019-03-27T09:05:11.779Z,5.00
2019-03-27T09:07:40.160Z,4.85
2019-03-27T09:10:08.822Z,4.30
2019-03-27T09:12:37.204Z,4.40
2019-03-27T09:15:07.980Z,5.10
2019-03-27T09:17:36.446Z,5.03
2019-03-27T09:20:08.081Z,6.03
2019-03-27T09:22:38.529Z,4.70
2019-03-27T09:25:06.913Z,4.87
2019-03-27T09:27:35.381Z,5.30
2019-03-27T09:30:05.930Z,4.55
2019-03-27T09:32:34.333Z,4.80
2019-03-27T09:35:02.721Z,4.42
2019-03-27T09:37:31.160Z,4.40
2019-03-27T09:39:59.531Z,5.17
2019-03-27T09:42:27.959Z,4.28
2019-03-27T09:44:56.334Z,4.45
2019-03-27T09:47:24.756Z,4.30
2019-03-27T09:49:53.159Z,3.72
2019-03-27T09:52:21.569Z,4.33
2019-03-27T09:54:49.986Z,4.00
2019-03-27T09:57:18.384Z,4.08
2019-03-27T09:59:48.875Z,4.53
2019-03-27T10:02:17.372Z,3.95
2019-03-27T10:04:45.779Z,4.20
2019-03-27T10:07:14.165Z,3.67
2019-03-27T10:09:42.656Z,3.33
2019-03-27T10:12:11.038Z,4.08
2019-03-27T10:14:39.448Z,3.47
2019-03-27T10:17:07.874Z,3.75
2019-03-27T10:19:36.287Z,3.22
2019-03-27T10:22:04.720Z,2.98
2019-03-27T10:24:33.189Z,2.98
2019-03-27T10:27:01.567Z,2.58
2019-03-27T10:29:29.959Z,2.67
2019-03-27T10:31:58.378Z,2.72
2019-03-27T10:34:26.792Z,3.45
2019-03-27T10:36:55.228Z,3.02
2019-03-27T10:39:23.653Z,2.92
2019-03-27T10:41:52.077Z,2.45
2019-03-27T10:44:20.508Z,2.65
2019-03-27T10:46:48.918Z,2.90
2019-03-27T10:49:17.314Z,3.12
2019-03-27T10:51:46.748Z,2.58
2019-03-27T10:54:15.173Z,2.50
2019-03-27T10:56:43.570Z,2.72
2019-03-27T10:59:12.015Z,3.08
2019-03-27T11:01:40.418Z,3.20
2019-03-27T11:04:08.850Z,3.35
2019-03-27T11:06:37.222Z,2.67
2019-03-27T11:09:08.489Z,3.67
2019-03-27T11:11:37.935Z,2.52
2019-03-27T11:14:06.541Z,2.98
2019-03-27T11:16:34.979Z,2.83
2019-03-27T11:19:03.395Z,3.08
2019-03-27T11:21:32.742Z,3.77
2019-03-27T11:24:01.160Z,2.87
2019-03-27T11:26:29.576Z,3.20
2019-03-27T11:28:58.110Z,3.05
2019-03-27T11:31:26.544Z,3.20
2019-03-27T11:33:54.968Z,2.90
2019-03-27T11:36:23.379Z,3.10
2019-03-27T11:38:51.803Z,2.92
2019-03-27T11:41:20.584Z,3.90
2019-03-27T11:43:54.934Z,4.03
2019-03-27T11:46:20.003Z,3.15
2019-03-27T11:48:48.419Z,3.17
2019-03-27T11:51:16.849Z,3.50
2019-03-27T11:53:45.329Z,3.12
2019-03-27T11:56:14.804Z,2.92
2019-03-27T11:58:43.468Z,3.67
2019-03-27T12:01:11.866Z,2.80
2019-03-27T12:03:40.381Z,3.10
2019-03-27T12:06:08.768Z,3.98
2019-03-27T12:08:37.204Z,3.30
2019-03-27T12:11:05.620Z,3.33
2019-03-27T12:13:34.056Z,3.27
2019-03-27T12:16:02.465Z,3.25
2019-03-27T12:18:32.219Z,3.55
2019-03-27T12:21:00.778Z,3.25
2019-03-27T12:23:29.170Z,3.05
2019-03-27T12:25:57.571Z,3.60
2019-03-27T12:28:26.016Z,3.83
2019-03-27T12:30:54.454Z,4.50
2019-03-27T12:33:22.946Z,4.37
2019-03-27T12:35:52.375Z,3.90
2019-03-27T12:38:20.801Z,4.20
2019-03-27T12:40:49.243Z,4.30
2019-03-27T12:43:17.630Z,4.25
2019-03-27T12:45:46.046Z,4.62
2019-03-27T12:48:14.465Z,4.28
2019-03-27T12:50:44.310Z,4.22
2019-03-27T12:53:13.102Z,3.62
2019-03-27T12:55:41.562Z,4.53
2019-03-27T12:58:11.735Z,4.30
2019-03-27T13:00:40.188Z,4.62
2019-03-27T13:03:08.595Z,4.62
2019-03-27T13:05:36.999Z,5.47
2019-03-27T13:08:05.392Z,5.53
2019-03-27T13:10:33.805Z,4.67
2019-03-27T13:13:02.313Z,5.62
2019-03-27T13:15:30.801Z,6.33
2019-03-27T13:17:59.395Z,6.55
2019-03-27T13:20:27.821Z,6.60
2019-03-27T13:22:56.585Z,6.75
2019-03-27T13:25:25.020Z,6.85
2019-03-27T13:27:53.428Z,6.55
2019-03-27T13:30:21.934Z,7.22
2019-03-27T13:32:50.381Z,7.22
2019-03-27T13:35:18.831Z,6.85
2019-03-27T13:37:47.218Z,7.80
2019-03-27T13:40:15.767Z,8.03
2019-03-27T13:42:44.183Z,7.83
2019-03-27T13:45:14.061Z,7.70
2019-03-27T13:47:42.483Z,7.85
2019-03-27T13:50:13.299Z,7.42
2019-03-27T13:52:41.992Z,6.70
2019-03-27T13:55:10.411Z,7.03
2019-03-27T13:57:38.818Z,6.15
2019-03-27T14:00:08.938Z,6.83
2019-03-27T14:02:37.625Z,6.62
2019-03-27T14:05:06.337Z,6.65
2019-03-27T14:07:34.888Z,6.87
2019-03-27T14:10:04.038Z,6.70
2019-03-27T14:12:32.462Z,7.22
2019-03-27T14:15:00.868Z,6.87
2019-03-27T14:17:31.545Z,6.80
2019-03-27T14:20:00.389Z,7.12
2019-03-27T14:22:28.909Z,7.28
2019-03-27T14:24:57.287Z,6.70
2019-03-27T14:27:25.715Z,5.90
2019-03-27T14:29:54.176Z,5.87
2019-03-27T14:32:22.667Z,6.33
2019-03-27T14:34:53.776Z,5.65
2019-03-27T14:37:21.236Z,5.75
2019-03-27T14:39:49.625Z,6.37
2019-03-27T14:42:18.156Z,6.15
2019-03-27T14:44:46.585Z,6.37
2019-03-27T14:47:14.997Z,5.47
2019-03-27T14:49:43.406Z,5.53
2019-03-27T14:52:11.850Z,5.42
2019-03-27T14:54:40.378Z,6.62
2019-03-27T14:57:08.831Z,6.62
2019-03-27T14:59:37.256Z,5.75
2019-03-27T15:02:06.087Z,7.25
2019-03-27T15:04:34.529Z,6.30
2019-03-27T15:07:02.932Z,6.40
2019-03-27T15:09:31.347Z,6.42
2019-03-27T15:12:19.282Z,6.15
2019-03-27T15:14:47.604Z,6.60
2019-03-27T15:17:16.037Z,7.03
2019-03-27T15:19:44.477Z,7.00
2019-03-27T15:22:22.419Z,5.85
2019-03-27T15:24:42.965Z,6.22
2019-03-27T15:27:11.342Z,5.47
2019-03-27T15:29:39.766Z,5.55
2019-03-27T15:32:08.154Z,6.58
2019-03-27T15:34:36.684Z,6.12
2019-03-27T15:37:05.123Z,6.78
2019-03-27T15:39:33.498Z,5.65
2019-03-27T15:42:01.963Z,5.78
2019-03-27T15:44:30.452Z,6.12
2019-03-27T15:46:58.874Z,6.30
2019-03-27T15:49:27.249Z,5.70
2019-03-27T15:51:56.702Z,5.92
2019-03-27T15:54:25.081Z,5.62
2019-03-27T15:56:53.487Z,5.55
2019-03-27T15:59:25.083Z,5.37
2019-03-27T16:01:53.494Z,5.65
2019-03-27T16:04:21.890Z,5.60
2019-03-27T16:06:50.334Z,6.62
2019-03-27T16:09:19.485Z,5.85
2019-03-27T16:11:47.897Z,5.70
2019-03-27T16:14:16.310Z,5.03
2019-03-27T16:17:01.224Z,5.55
2019-03-27T16:19:14.837Z,4.72
2019-03-27T16:21:43.230Z,5.05
2019-03-27T16:24:11.650Z,4.60
2019-03-27T16:26:40.084Z,4.95
2019-03-27T16:29:08.498Z,4.37
2019-03-27T16:31:36.884Z,4.75
2019-03-27T16:34:05.309Z,4.67
2019-03-27T16:36:33.745Z,3.72
2019-03-27T16:39:02.145Z,5.90
2019-03-27T16:41:30.603Z,4.25
2019-03-27T16:43:58.984Z,4.53
2019-03-27T16:46:28.407Z,3.70
2019-03-27T16:48:56.790Z,3.87
2019-03-27T16:51:25.215Z,3.72
2019-03-27T16:53:53.643Z,4.72
2019-03-27T16:56:23.181Z,3.90
2019-03-27T16:58:51.555Z,4.60
2019-03-27T17:01:20.009Z,4.50
2019-03-27T17:03:48.412Z,4.58
2019-03-27T17:06:17.838Z,4.05
2019-03-27T17:08:46.257Z,4.25
2019-03-27T17:11:14.659Z,3.72
2019-03-27T17:13:43.074Z,3.75
2019-03-27T17:16:11.510Z,4.17
2019-03-27T17:18:39.956Z,5.05
2019-03-27T17:21:08.358Z,4.47
2019-03-27T17:23:36.771Z,4.53
2019-03-27T17:26:06.177Z,3.83
2019-03-27T17:28:34.601Z,4.50
2019-03-27T17:31:02.982Z,3.70
2019-03-27T17:33:31.438Z,4.45
2019-03-27T17:35:59.822Z,4.45
2019-03-27T17:38:28.263Z,4.35
2019-03-27T17:40:56.666Z,5.12
2019-03-27T17:43:25.092Z,3.70
2019-03-27T17:45:53.482Z,4.17
2019-03-27T17:48:21.891Z,4.87
2019-03-27T17:50:50.282Z,4.72
2019-03-27T17:53:31.041Z,4.30
2019-03-27T17:55:48.765Z,5.00
2019-03-27T17:58:17.206Z,4.45
2019-03-27T18:00:49.229Z,4.65
2019-03-27T18:03:19.060Z,5.12
2019-03-27T18:05:47.497Z,4.75
2019-03-27T18:08:15.901Z,4.40
2019-03-27T18:10:44.302Z,4.97
2019-03-27T18:13:12.723Z,5.00
2019-03-27T18:15:41.124Z,5.12
2019-03-27T18:18:09.509Z,5.55
2019-03-27T18:20:37.916Z,5.12
2019-03-27T18:23:06.302Z,4.62
2019-03-27T18:25:34.868Z,4.60
2019-03-27T18:28:03.301Z,4.58
2019-03-27T18:30:31.724Z,4.60
2019-03-27T18:33:00.174Z,4.55
2019-03-27T18:35:28.626Z,5.12
2019-03-27T18:37:57.025Z,5.12
2019-03-27T18:40:25.413Z,4.97
2019-03-27T18:42:53.819Z,4.75
2019-03-27T18:45:22.213Z,5.25
2019-03-27T18:47:50.606Z,5.53
2019-03-27T18:50:19.023Z,6.00
2019-03-27T18:52:47.418Z,5.80
2019-03-27T18:55:25.797Z,5.37
2019-03-27T18:57:59.096Z,5.87
2019-03-27T19:00:16.021Z,5.60
2019-03-27T19:02:44.451Z,4.97
2019-03-27T19:05:12.867Z,6.05
2019-03-27T19:07:41.341Z,5.78
2019-03-27T19:10:09.661Z,5.45
2019-03-27T19:12:38.096Z,5.22
2019-03-27T19:15:09.240Z,5.58
2019-03-27T19:17:37.666Z,6.45
2019-03-27T19:20:07.702Z,6.28
2019-03-27T19:22:36.085Z,6.00
2019-03-27T19:25:06.569Z,7.12
2019-03-27T19:27:34.966Z,6.65
2019-03-27T19:30:04.807Z,6.35
2019-03-27T19:32:33.185Z,6.62
2019-03-27T19:35:01.693Z,6.12
2019-03-27T19:37:30.096Z,6.33
2019-03-27T19:40:01.005Z,6.97
2019-03-27T19:42:28.548Z,6.17
2019-03-27T19:44:57.057Z,6.53
2019-03-27T19:47:25.439Z,5.60
2019-03-27T19:49:53.850Z,5.55
2019-03-27T19:52:22.266Z,6.00
2019-03-27T19:54:50.683Z,5.15
2019-03-27T19:57:19.136Z,6.65
2019-03-27T19:59:47.554Z,6.42
2019-03-27T20:02:15.964Z,5.70
2019-03-27T20:04:44.373Z,5.47
2019-03-27T20:07:12.751Z,6.28
2019-03-27T20:09:41.159Z,5.62
2019-03-27T20:12:10.562Z,6.55
2019-03-27T20:14:38.984Z,6.67
2019-03-27T20:17:07.370Z,6.30
2019-03-27T20:19:35.853Z,6.42
2019-03-27T20:22:04.258Z,5.60
2019-03-27T20:24:40.905Z,6.33
2019-03-27T20:27:02.697Z,5.97
2019-03-27T20:29:31.131Z,6.37
2019-03-27T20:31:59.573Z,6.60
2019-03-27T20:34:28.029Z,5.60
2019-03-27T20:36:56.453Z,5.67
2019-03-27T20:39:24.807Z,6.12
2019-03-27T20:41:53.247Z,6.35
2019-03-27T20:44:21.631Z,6.75
2019-03-27T20:46:50.177Z,7.10
2019-03-27T20:49:18.554Z,6.62
2019-03-27T20:51:47.978Z,6.80
2019-03-27T20:54:16.438Z,7.33
2019-03-27T20:56:44.865Z,7.00
2019-03-27T20:59:13.310Z,7.10
2019-03-27T21:01:41.708Z,7.00
2019-03-27T21:04:10.104Z,7.47
2019-03-27T21:06:38.550Z,7.03
2019-03-27T21:09:06.924Z,7.62
2019-03-27T21:11:36.458Z,8.75
2019-03-27T21:14:04.850Z,7.22
2019-03-27T21:16:33.234Z,8.30
2019-03-27T21:19:01.647Z,7.87
2019-03-27T21:21:30.037Z,7.58
2019-03-27T21:23:58.444Z,7.92
2019-03-27T21:26:26.829Z,8.13
2019-03-27T21:28:55.290Z,7.95
2019-03-27T21:31:23.668Z,8.43
2019-03-27T21:33:52.088Z,8.45
2019-03-27T21:36:20.466Z,8.30
2019-03-27T21:38:48.902Z,10.28
2019-03-27T21:41:17.289Z,8.83
2019-03-27T21:43:45.705Z,9.03
2019-03-27T21:46:14.100Z,9.05
2019-03-27T21:48:46.533Z,9.78
2019-03-27T21:51:14.917Z,10.10
2019-03-27T21:53:43.375Z,10.98
2019-03-27T21:56:13.750Z,10.13
2019-03-27T21:58:41.855Z,10.32
2019-03-27T22:01:10.248Z,11.10
2019-03-27T22:03:38.658Z,10.55
2019-03-27T22:06:07.122Z,10.85
2019-03-27T22:08:35.526Z,10.78
2019-03-27T22:11:03.917Z,10.70
2019-03-27T22:13:32.327Z,9.68
2019-03-27T22:16:00.739Z,10.85
2019-03-27T22:18:29.132Z,11.08
2019-03-27T22:20:57.626Z,11.03
2019-03-27T22:23:26.052Z,11.00
2019-03-27T22:25:54.575Z,11.05
2019-03-27T22:28:23.016Z,11.90
2019-03-27T22:30:51.398Z,11.50
2019-03-27T22:33:19.813Z,11.08
2019-03-27T22:35:48.239Z,11.83
2019-03-27T22:38:16.652Z,12.23
2019-03-27T22:40:45.060Z,12.05
2019-03-27T22:43:13.479Z,11.53
2019-03-27T22:45:43.873Z,10.75
2019-03-27T22:48:12.287Z,11.45
2019-03-27T22:50:40.675Z,12.33
2019-03-27T22:53:09.135Z,10.53
2019-03-27T22:55:49.138Z,12.85
2019-03-27T22:58:07.669Z,12.07
2019-03-27T23:00:40.516Z,12.47
2019-03-27T23:03:18.190Z,13.08
2019-03-27T23:05:38.994Z,13.08
2019-03-27T23:08:07.407Z,12.30
2019-03-27T23:10:35.829Z,13.15
2019-03-27T23:13:04.242Z,11.65
2019-03-27T23:15:32.711Z,13.38
2019-03-27T23:18:01.088Z,12.40
2019-03-27T23:20:29.542Z,12.70
2019-03-27T23:22:57.925Z,11.85
2019-03-27T23:25:26.340Z,13.05
2019-03-27T23:27:54.727Z,14.23
2019-03-27T23:30:23.242Z,12.82
2019-03-27T23:32:51.600Z,13.62
2019-03-27T23:35:20.069Z,12.95
2019-03-27T23:37:48.763Z,13.50
2019-03-27T23:40:17.308Z,13.08
2019-03-27T23:42:45.701Z,14.10
2019-03-27T23:45:14.093Z,12.88
2019-03-27T23:47:42.539Z,13.48
2019-03-27T23:50:11.117Z,14.30
2019-03-27T23:52:39.485Z,13.65
2019-03-27T23:55:07.877Z,13.95
2019-03-27T23:57:36.287Z,13.95
